createdAt,value
2022-11-15T00:03:20.032Z,2.35
2022-11-15T00:08:35.330Z,2.38
2022-11-15T00:13:47.202Z,2.45
2022-11-15T00:18:59.467Z,2.50
2022-11-15T00:24:11.488Z,2.60
2022-11-15T00:29:23.553Z,2.60
2022-11-15T00:34:35.811Z,2.00
2022-11-15T00:39:47.070Z,2.22
2022-11-15T00:50:14.214Z,1.98
2022-11-15T00:55:27.615Z,2.30
2022-11-15T01:00:39.581Z,2.10
2022-11-15T01:05:51.539Z,2.22
2022-11-15T01:11:06.111Z,2.15
2022-11-15T01:16:20.075Z,2.58
2022-11-15T01:21:31.462Z,1.80
2022-11-15T01:26:43.233Z,2.25
2022-11-15T01:31:55.518Z,2.38
2022-11-15T01:37:07.839Z,2.08
2022-11-15T01:42:20.166Z,2.60
2022-11-15T01:47:39.294Z,2.53
2022-11-15T01:52:50.725Z,2.72
2022-11-15T01:58:05.632Z,2.80
2022-11-15T02:03:17.171Z,3.00
2022-11-15T02:08:29.284Z,3.20
2022-11-15T02:13:41.271Z,3.13
2022-11-15T02:19:05.504Z,3.47
2022-11-15T02:24:29.088Z,3.58
2022-11-15T02:30:00.257Z,3.60
2022-11-15T02:35:21.526Z,3.55
2022-11-15T02:41:19.839Z,3.72
2022-11-15T02:46:58.913Z,3.72
2022-11-15T02:52:11.321Z,3.78
2022-11-15T02:57:48.962Z,3.92
2022-11-15T03:03:24.868Z,3.85
2022-11-15T03:09:07.806Z,4.15
2022-11-15T03:14:32.663Z,4.05
2022-11-15T03:19:51.500Z,4.65
2022-11-15T03:25:08.641Z,4.03
2022-11-15T03:30:20.235Z,4.05
2022-11-15T03:35:55.384Z,4.15
2022-11-15T03:41:12.651Z,4.45
2022-11-15T03:47:01.334Z,4.15
2022-11-15T03:52:13.314Z,4.07
2022-11-15T03:57:25.274Z,4.70
2022-11-15T04:02:37.222Z,4.43
2022-11-15T04:07:48.946Z,4.47
2022-11-15T04:13:00.108Z,4.38
2022-11-15T04:18:12.160Z,4.65
2022-11-15T04:23:43.235Z,4.75
2022-11-15T04:34:26.691Z,4.15
2022-11-15T04:39:38.915Z,4.57
2022-11-15T04:44:50.931Z,5.00
2022-11-15T04:50:02.270Z,5.00
2022-11-15T04:55:14.019Z,4.50
2022-11-15T05:00:26.028Z,4.72
2022-11-15T05:05:37.754Z,4.72
2022-11-15T05:10:49.291Z,4.47
2022-11-15T05:16:00.433Z,4.75
2022-11-15T05:21:32.000Z,4.93
2022-11-15T05:26:44.352Z,4.25
2022-11-15T05:31:55.746Z,4.90
2022-11-15T05:37:11.199Z,4.45
2022-11-15T05:42:23.614Z,4.53
2022-11-15T05:47:39.015Z,4.80
2022-11-15T05:52:53.112Z,5.10
2022-11-15T05:58:05.405Z,4.93
2022-11-15T06:03:16.851Z,4.32
2022-11-15T06:08:29.203Z,4.57
2022-11-15T06:13:41.855Z,4.53
2022-11-15T06:18:53.538Z,5.00
2022-11-15T06:24:05.638Z,4.82
2022-11-15T06:29:17.886Z,4.85
2022-11-15T06:34:30.402Z,4.55
2022-11-15T06:39:46.822Z,5.82
2022-11-15T06:44:58.048Z,13.07
2022-11-15T06:50:12.149Z,10.48
2022-11-15T06:55:23.576Z,13.75
2022-11-15T07:00:35.425Z,13.52
2022-11-15T07:05:55.598Z,10.70
2022-11-15T07:11:09.763Z,11.02
2022-11-15T07:16:23.261Z,11.90
2022-11-15T07:21:35.609Z,10.15
2022-11-15T07:26:47.938Z,8.75
2022-11-15T07:31:59.265Z,11.05
2022-11-15T07:37:10.498Z,9.95
2022-11-15T07:42:41.022Z,9.05
2022-11-15T07:47:53.126Z,9.10
2022-11-15T07:53:05.786Z,10.07
2022-11-15T07:58:19.646Z,9.40
2022-11-15T08:03:31.703Z,8.75
2022-11-15T08:08:44.095Z,9.52
2022-11-15T08:13:55.670Z,8.95
2022-11-15T08:19:07.111Z,9.93
2022-11-15T08:24:19.222Z,9.45
2022-11-15T08:29:31.216Z,9.82
2022-11-15T08:34:43.582Z,9.73
2022-11-15T08:39:55.943Z,10.10
2022-11-15T08:45:08.357Z,9.75
2022-11-15T08:50:21.265Z,10.25
2022-11-15T08:55:32.517Z,9.85
2022-11-15T09:00:44.962Z,10.25
2022-11-15T09:05:58.995Z,10.52
2022-11-15T09:11:11.541Z,10.30
2022-11-15T09:16:23.043Z,9.25
2022-11-15T09:21:34.619Z,9.38
2022-11-15T09:26:46.608Z,9.27
2022-11-15T09:31:58.896Z,9.50
2022-11-15T09:37:09.834Z,8.85
2022-11-15T09:42:39.786Z,8.80
2022-11-15T09:47:59.824Z,8.00
2022-11-15T09:53:16.517Z,8.73
2022-11-15T09:58:23.455Z,8.02
2022-11-15T10:03:43.277Z,8.68
2022-11-15T10:08:42.377Z,8.35
2022-11-15T10:13:44.978Z,8.68
2022-11-15T10:19:12.137Z,8.30
2022-11-15T10:24:13.552Z,8.18
2022-11-15T10:29:07.800Z,7.85
2022-11-15T10:34:20.685Z,7.43
2022-11-15T10:39:15.538Z,8.07
2022-11-15T10:44:08.118Z,7.30
2022-11-15T10:49:46.711Z,8.63
2022-11-15T10:54:45.019Z,7.18
2022-11-15T10:59:39.919Z,7.55
2022-11-15T11:04:54.202Z,8.20
2022-11-15T11:10:02.740Z,8.00
2022-11-15T11:14:56.271Z,8.70
2022-11-15T11:20:11.398Z,7.88
2022-11-15T11:25:10.560Z,8.00
2022-11-15T11:30:21.525Z,7.43
2022-11-15T11:35:28.304Z,8.10
2022-11-15T11:40:21.426Z,8.02
2022-11-15T11:45:26.336Z,8.40
2022-11-15T11:50:26.233Z,8.35
2022-11-15T11:55:33.459Z,8.15
2022-11-15T12:00:30.578Z,8.20
2022-11-15T12:05:38.524Z,8.75
2022-11-15T12:10:37.508Z,7.60
2022-11-15T12:15:45.174Z,5.78
2022-11-15T12:20:46.304Z,4.68
2022-11-15T12:25:59.225Z,4.65
2022-11-15T12:36:25.169Z,4.13
2022-11-15T12:41:22.738Z,3.38
2022-11-15T12:46:24.898Z,3.35
2022-11-15T12:51:22.979Z,3.42
2022-11-15T12:56:18.256Z,3.10
2022-11-15T13:01:36.441Z,3.28
2022-11-15T13:06:53.751Z,3.33
2022-11-15T13:11:51.373Z,2.45
2022-11-15T13:16:47.372Z,2.40
2022-11-15T13:22:10.135Z,2.20
2022-11-15T13:27:13.722Z,2.38
2022-11-15T13:32:17.864Z,2.95
2022-11-15T13:37:23.180Z,2.90
2022-11-15T13:42:25.479Z,2.63
2022-11-15T13:47:29.400Z,2.50
2022-11-15T13:52:34.170Z,2.45
2022-11-15T13:57:33.654Z,2.63
2022-11-15T14:02:30.884Z,2.13
2022-11-15T14:07:27.473Z,2.33
2022-11-15T14:12:34.553Z,2.30
2022-11-15T14:17:29.855Z,1.98
2022-11-15T14:22:27.648Z,2.28
2022-11-15T14:27:29.348Z,1.98
2022-11-15T14:32:47.328Z,2.25
2022-11-15T14:37:41.183Z,1.90
2022-11-15T14:42:38.832Z,1.60
2022-11-15T14:47:32.915Z,2.28
2022-11-15T14:52:37.284Z,1.63
2022-11-15T14:57:30.931Z,1.55
2022-11-15T15:02:27.478Z,1.27
2022-11-15T15:07:21.102Z,1.45
2022-11-15T15:12:24.172Z,1.80
2022-11-15T15:17:18.803Z,1.55
2022-11-15T15:22:18.453Z,1.88
2022-11-15T15:27:12.308Z,1.65
2022-11-15T15:32:07.284Z,1.20
2022-11-15T15:37:26.056Z,1.80
2022-11-15T15:42:21.569Z,1.35
2022-11-15T15:47:18.105Z,1.55
2022-11-15T15:52:11.922Z,1.40
2022-11-15T15:57:06.947Z,1.55
2022-11-15T16:02:01.462Z,1.40
2022-11-15T16:06:59.427Z,1.40
2022-11-15T16:11:53.016Z,1.10
2022-11-15T16:16:46.899Z,1.20
2022-11-15T16:21:41.128Z,1.17
2022-11-15T16:26:37.831Z,1.55
2022-11-15T16:31:32.565Z,1.35
2022-11-15T16:36:30.720Z,1.17
2022-11-15T16:41:25.209Z,1.23
2022-11-15T16:46:27.211Z,1.02
2022-11-15T16:51:21.102Z,1.25
2022-11-15T16:56:30.420Z,1.13
2022-11-15T17:01:26.406Z,1.10
2022-11-15T17:06:20.882Z,1.10
2022-11-15T17:11:19.404Z,1.00
2022-11-15T17:16:18.889Z,1.00
2022-11-15T17:21:17.985Z,1.00
2022-11-15T17:26:31.147Z,1.00
2022-11-15T17:31:27.951Z,0.98
2022-11-15T17:36:22.286Z,1.08
2022-11-15T17:41:17.094Z,0.95
2022-11-15T17:46:21.303Z,1.17
2022-11-15T17:51:18.259Z,0.90
2022-11-15T17:56:39.325Z,1.17
2022-11-15T18:01:39.305Z,1.15
2022-11-15T18:06:39.448Z,1.00
2022-11-15T18:11:39.370Z,3.20
2022-11-15T18:16:43.638Z,3.90
2022-11-15T18:21:56.932Z,6.53
2022-11-15T18:26:56.266Z,9.60
2022-11-15T18:31:59.623Z,7.55
2022-11-15T18:37:04.652Z,7.35
2022-11-15T18:42:06.363Z,6.28
2022-11-15T18:47:12.546Z,5.00
2022-11-15T18:52:16.812Z,5.05
2022-11-15T18:57:19.967Z,7.10
2022-11-15T19:02:20.926Z,6.50
2022-11-15T19:07:18.743Z,11.20
2022-11-15T19:12:17.806Z,18.90
2022-11-15T19:17:20.874Z,13.82
2022-11-15T19:22:20.084Z,18.52
2022-11-15T19:27:21.232Z,10.88
2022-11-15T19:32:19.866Z,9.25
2022-11-15T19:37:16.621Z,8.07
2022-11-15T19:42:17.537Z,5.80
2022-11-15T19:47:14.263Z,5.90
2022-11-15T19:52:09.117Z,5.45
2022-11-15T19:57:03.037Z,4.40
2022-11-15T20:02:03.803Z,4.63
2022-11-15T20:07:04.157Z,3.88
2022-11-15T20:12:04.962Z,4.35
2022-11-15T20:17:04.198Z,4.65
2022-11-15T20:22:06.144Z,5.18
2022-11-15T20:27:07.141Z,5.85
2022-11-15T20:32:08.740Z,5.90
2022-11-15T20:37:11.766Z,5.72
2022-11-15T20:42:14.660Z,5.72
2022-11-15T20:47:12.380Z,6.75
2022-11-15T20:52:07.060Z,6.30
2022-11-15T20:57:01.827Z,6.15
2022-11-15T21:01:55.943Z,6.50
2022-11-15T21:06:50.466Z,7.00
2022-11-15T21:12:03.605Z,6.18
2022-11-15T21:17:13.136Z,6.05
2022-11-15T21:22:10.353Z,6.32
2022-11-15T21:27:04.695Z,5.65
2022-11-15T21:32:01.697Z,5.55
2022-11-15T21:36:58.947Z,5.78
2022-11-15T21:41:52.623Z,5.78
2022-11-15T21:46:47.241Z,5.90
2022-11-15T21:51:42.006Z,6.10
2022-11-15T21:56:36.310Z,6.25
2022-11-15T22:01:48.727Z,6.43
2022-11-15T22:06:43.200Z,6.03
2022-11-15T22:11:37.462Z,5.90
2022-11-15T22:16:34.726Z,6.40
2022-11-15T22:21:34.429Z,6.30
2022-11-15T22:26:31.414Z,6.60
2022-11-15T22:31:24.856Z,6.40
2022-11-15T22:36:18.667Z,7.05
2022-11-15T22:41:12.667Z,6.75
2022-11-15T22:46:19.961Z,6.88
2022-11-15T22:51:14.149Z,6.50
2022-11-15T22:56:09.807Z,6.88
2022-11-15T23:01:06.011Z,7.07
2022-11-15T23:06:08.520Z,7.00
2022-11-15T23:11:22.320Z,6.80
2022-11-15T23:16:24.693Z,6.47
2022-11-15T23:21:49.687Z,6.53
2022-11-15T23:26:46.063Z,6.88
2022-11-15T23:32:02.133Z,6.57
2022-11-15T23:36:55.926Z,6.70
2022-11-15T23:41:49.713Z,7.20
2022-11-15T23:46:43.597Z,7.38
2022-11-15T23:51:37.134Z,6.97
2022-11-15T23:56:31.286Z,6.97
